Terminal Aerodrome Forecast
Issued by NWS

Home | Current Version | Previous Version | Text Only | Print | Product List | Glossary On
Versions: 1 2 3 4 5 6 7 8 9 10 11 12 13 14 15 16 17
000
FTPA31 PHFO 222340
TAFHOG
TAF
PHOG 222340Z 2300/2324 05020G27KT P6SM SCT060
     FM230300 05015G22KT P6SM SCT060
     FM230900 06009KT P6SM FEW060
     FM231900 05012G18KT P6SM SCT060
     FM232300 05018G25KT P6SM SCT060
      AMD LTD TO VIS AND WIND 2309/2316=

USA.gov is the U.S. government's official web portal to all federal, state and local government web resources and services.